Time;durP1;ratioP1;P1;durP2;ratioP2;P2;SDS_P1;SDS_P2;PMS_P1;PMS_P2;Temp;Humidity;BMP_temperature;BMP_pressure;BME280_temperature;BME280_humidity;BME280_pressure;Samples;Min_cycle;Max_cycle;Signal;HPM_P1;HPM_P2
2022/08/09 00:01:57;;;;;;;0.70;0.70;;;;;;;18.74;88.14;102041.00;4991022;28;20037;-71
2022/08/09 00:04:22;;;;;;;1.98;1.10;;;;;;;18.73;87.64;102044.91;4990178;28;20037;-69
2022/08/09 00:06:48;;;;;;;2.83;0.73;;;;;;;18.72;88.12;102042.53;4990262;28;20076;-68
2022/08/09 00:09:34;;;;;;;0.80;0.70;;;;;;;18.62;88.66;102035.03;4989527;28;20080;-68
2022/08/09 00:11:59;;;;;;;0.55;0.40;;;;;;;18.64;88.61;102036.22;5007837;28;20068;-68
2022/08/09 00:14:25;;;;;;;1.30;0.73;;;;;;;18.59;88.73;102041.25;5008070;28;20483;-71
2022/08/09 00:16:50;;;;;;;1.45;0.85;;;;;;;18.60;88.46;102043.59;5008665;28;20050;-68
2022/08/09 00:19:16;;;;;;;2.75;0.90;;;;;;;18.59;87.94;102046.69;4991773;28;20033;-71
2022/08/09 00:21:41;;;;;;;1.40;0.70;;;;;;;18.60;88.52;102051.00;5006028;28;20034;-68
2022/08/09 00:24:07;;;;;;;1.17;0.63;;;;;;;18.43;88.25;102038.72;5008273;28;20442;-68
2022/08/09 00:26:33;;;;;;;1.00;0.63;;;;;;;18.33;89.49;102041.34;4991910;28;20038;-68
2022/08/09 00:29:01;;;;;;;2.20;0.90;;;;;;;18.25;89.47;102045.13;5006606;28;20029;-68
2022/08/09 00:31:26;;;;;;;1.30;1.02;;;;;;;18.30;90.31;102048.31;5007394;28;20033;-68
2022/08/09 00:33:54;;;;;;;2.05;0.88;;;;;;;18.23;90.04;102045.50;5008624;28;20383;-69
2022/08/09 00:36:21;;;;;;;0.98;0.82;;;;;;;18.21;90.13;102053.28;5008334;28;20144;-68
2022/08/09 00:38:46;;;;;;;1.63;0.75;;;;;;;18.39;89.77;102050.75;5006256;28;20394;-68
2022/08/09 00:41:12;;;;;;;0.88;0.65;;;;;;;18.40;89.25;102046.84;5007933;28;20034;-69
2022/08/09 00:43:39;;;;;;;0.77;0.77;;;;;;;18.34;89.02;102049.13;5006654;28;20545;-71
2022/08/09 00:46:07;;;;;;;2.80;0.85;;;;;;;18.27;89.56;102049.06;5007947;28;20045;-68
2022/08/09 00:48:32;;;;;;;0.85;0.77;;;;;;;18.21;89.57;102049.75;4993882;28;20043;-68
2022/08/09 00:51:07;;;;;;;1.45;0.93;;;;;;;18.25;89.17;102051.38;4976305;28;20498;-71
2022/08/09 00:53:34;;;;;;;0.80;0.77;;;;;;;18.21;90.02;102050.56;4992983;28;20042;-69
2022/08/09 00:56:01;;;;;;;1.20;0.80;;;;;;;18.19;89.66;102043.88;4994489;28;20108;-69
2022/08/09 00:58:49;;;;;;;1.08;0.82;;;;;;;18.10;89.78;102037.94;4988140;28;20070;-69
2022/08/09 01:01:19;;;;;;;3.05;0.85;;;;;;;18.04;90.75;102040.19;4945196;28;20463;-69
2022/08/09 01:03:54;;;;;;;2.33;1.00;;;;;;;18.14;90.27;102044.22;4956183;28;20054;-69
2022/08/09 01:06:41;;;;;;;1.25;0.90;;;;;;;18.17;89.99;102047.00;4958797;28;20059;-69
2022/08/09 01:09:18;;;;;;;1.30;0.88;;;;;;;18.08;89.32;102040.25;4951959;28;20047;-69
2022/08/09 01:12:18;;;;;;;1.38;0.73;;;;;;;17.98;90.55;102037.00;4968564;28;20906;-69
2022/08/09 01:14:54;;;;;;;;;;;;;;;18.09;89.95;102039.09;4922853;29;20536;-69
2022/08/09 01:17:54;;;;;;;1.55;1.00;;;;;;;18.09;89.81;102044.53;4944500;28;20371;-69
2022/08/09 01:20:44;;;;;;;1.67;1.20;;;;;;;18.13;89.16;102046.16;4939618;28;20047;-69
2022/08/09 01:23:47;;;;;;;1.23;0.98;;;;;;;18.22;89.58;102051.31;4957219;28;20039;-70
2022/08/09 01:26:37;;;;;;;1.65;0.90;;;;;;;18.22;88.99;102046.66;4949966;28;20043;-69
2022/08/09 01:29:05;;;;;;;4.78;1.05;;;;;;;18.13;89.00;102048.09;4922517;29;20448;-69
2022/08/09 01:31:34;;;;;;;1.08;0.85;;;;;;;18.21;88.85;102049.75;4965759;28;20776;-69
2022/08/09 01:34:03;;;;;;;0.90;0.80;;;;;;;18.22;87.96;102034.94;4960652;28;20037;-69
2022/08/09 01:36:30;;;;;;;0.80;0.80;;;;;;;18.19;87.94;102043.88;4935716;29;20035;-69
2022/08/09 01:38:59;;;;;;;0.90;0.80;;;;;;;18.13;87.99;102039.91;4978008;28;20050;-69
2022/08/09 01:41:28;;;;;;;1.33;0.85;;;;;;;17.87;89.16;102032.59;4981272;28;20058;-69
2022/08/09 01:43:56;;;;;;;1.98;0.75;;;;;;;17.78;89.78;102040.25;4992102;28;20034;-69
2022/08/09 01:46:26;;;;;;;1.42;0.95;;;;;;;17.58;90.46;102036.88;4982506;28;20034;-69
2022/08/09 01:48:57;;;;;;;0.90;0.77;;;;;;;17.55;91.06;102034.09;4991019;28;20124;-69
2022/08/09 01:51:22;;;;;;;1.45;0.93;;;;;;;17.66;90.78;102046.72;4992323;28;20042;-69
2022/08/09 01:53:50;;;;;;;1.52;0.70;;;;;;;17.69;90.54;102037.78;4993671;28;20491;-69
2022/08/09 01:56:17;;;;;;;0.70;0.70;;;;;;;17.74;90.24;102037.50;4991014;28;20034;-69
2022/08/09 01:58:45;;;;;;;1.13;0.82;;;;;;;17.58;90.41;102039.59;5007460;28;20030;-69
2022/08/09 02:01:12;;;;;;;1.38;0.75;;;;;;;17.50;90.78;102039.88;4993282;28;20173;-69
2022/08/09 02:03:41;;;;;;;0.88;0.75;;;;;;;17.49;91.56;102041.00;4999225;28;20030;-69
2022/08/09 02:06:09;;;;;;;1.35;1.05;;;;;;;17.59;90.98;102048.56;4992867;28;20030;-69
2022/08/09 02:08:39;;;;;;;1.92;1.10;;;;;;;17.52;90.80;102046.50;4991237;28;20084;-69
2022/08/09 02:11:07;;;;;;;1.20;0.80;;;;;;;17.52;90.99;102051.16;4983712;28;20061;-69
2022/08/09 02:13:35;;;;;;;1.58;0.95;;;;;;;17.53;90.81;102050.81;4992247;28;20065;-69
2022/08/09 02:16:04;;;;;;;2.03;1.38;;;;;;;17.56;90.89;102043.84;4990969;28;20041;-69
2022/08/09 02:18:32;;;;;;;1.77;1.13;;;;;;;17.53;90.94;102052.75;4999320;28;20030;-69
2022/08/09 02:21:04;;;;;;;0.80;0.70;;;;;;;17.44;91.57;102044.81;4993438;28;20042;-69
2022/08/09 02:23:37;;;;;;;1.75;1.10;;;;;;;17.42;90.46;102046.34;4991077;28;20034;-69
2022/08/09 02:26:05;;;;;;;1.77;1.20;;;;;;;17.24;91.86;102046.06;4982441;28;20037;-69
2022/08/09 02:28:34;;;;;;;1.10;0.90;;;;;;;17.06;91.80;102042.25;4984249;28;20088;-69
2022/08/09 02:31:04;;;;;;;0.93;0.82;;;;;;;17.05;92.99;102043.44;4986796;28;20053;-69
2022/08/09 02:33:37;;;;;;;0.93;0.73;;;;;;;17.27;92.82;102044.53;4992435;28;20093;-69
2022/08/09 02:36:07;;;;;;;2.78;1.13;;;;;;;17.41;91.67;102045.53;4990564;28;20042;-69
2022/08/09 02:38:44;;;;;;;3.42;0.90;;;;;;;17.53;91.51;102041.84;4986468;28;20026;-69
2022/08/09 02:41:15;;;;;;;1.52;1.00;;;;;;;17.42;90.98;102049.06;5005900;28;20046;-69
2022/08/09 02:43:44;;;;;;;1.90;0.90;;;;;;;17.15;91.84;102045.50;4990934;28;20042;-69
2022/08/09 02:46:12;;;;;;;1.23;1.00;;;;;;;17.17;91.67;102048.66;4983894;28;20042;-69
2022/08/09 02:48:40;;;;;;;2.78;1.23;;;;;;;17.31;91.68;102051.63;4993709;28;20057;-67
2022/08/09 02:51:10;;;;;;;3.25;1.15;;;;;;;17.32;91.38;102050.47;4992045;28;20046;-67
2022/08/09 02:53:44;;;;;;;1.47;1.00;;;;;;;17.28;92.21;102046.13;5002284;28;20066;-67
2022/08/09 02:56:10;;;;;;;1.60;1.13;;;;;;;17.41;91.23;102044.75;4994320;28;20120;-67
2022/08/09 02:58:38;;;;;;;1.48;0.90;;;;;;;17.41;90.99;102045.53;4977940;28;20057;-67
2022/08/09 03:01:07;;;;;;;1.17;1.00;;;;;;;17.37;90.43;102047.44;4988655;28;20112;-67
2022/08/09 03:03:35;;;;;;;1.90;1.00;;;;;;;17.39;89.80;102041.59;4992231;28;20069;-67
2022/08/09 03:06:04;;;;;;;3.15;1.23;;;;;;;17.32;90.09;102034.13;4984928;28;20022;-67
2022/08/09 03:08:31;;;;;;;1.90;1.00;;;;;;;17.27;90.15;102037.16;4990991;28;20502;-67
2022/08/09 03:10:59;;;;;;;1.05;0.70;;;;;;;17.25;90.31;102042.19;4992668;28;20061;-67
2022/08/09 03:13:26;;;;;;;1.45;1.00;;;;;;;17.25;90.40;102044.91;4987242;28;20065;-67
2022/08/09 03:15:52;;;;;;;1.92;1.27;;;;;;;17.22;90.66;102053.03;4971765;28;20050;-67
2022/08/09 03:18:18;;;;;;;1.65;0.90;;;;;;;17.12;91.11;102038.88;4986785;28;20053;-67
2022/08/09 03:20:44;;;;;;;1.80;1.23;;;;;;;17.07;91.13;102041.88;4991810;28;20030;-67
2022/08/09 03:23:11;;;;;;;2.60;1.42;;;;;;;17.10;91.03;102045.84;4994185;28;20038;-67
2022/08/09 03:25:39;;;;;;;1.52;1.20;;;;;;;17.01;90.84;102043.34;4987394;28;20041;-67
2022/08/09 03:28:06;;;;;;;2.75;1.60;;;;;;;16.84;92.22;102043.06;4971789;28;20109;-68
2022/08/09 03:30:33;;;;;;;2.05;1.55;;;;;;;16.74;91.85;102035.50;4980720;28;20049;-68
2022/08/09 03:33:00;;;;;;;1.60;0.88;;;;;;;16.76;92.65;102042.13;4982536;28;20125;-68
2022/08/09 03:35:26;;;;;;;3.00;0.95;;;;;;;16.86;92.30;102052.44;5003852;28;20036;-68
2022/08/09 03:37:52;;;;;;;1.90;1.13;;;;;;;16.93;92.36;102054.50;4995552;28;20039;-68
2022/08/09 03:40:17;;;;;;;2.58;1.10;;;;;;;16.99;91.95;102061.22;4989638;28;20542;-69
2022/08/09 03:42:43;;;;;;;1.10;0.90;;;;;;;17.01;92.04;102058.91;4990365;28;20030;-68
2022/08/09 03:45:09;;;;;;;1.27;1.08;;;;;;;17.07;91.24;102057.47;4985512;28;20645;-68
2022/08/09 03:47:36;;;;;;;3.47;1.30;;;;;;;17.08;90.97;102059.81;4971694;28;20030;-68
2022/08/09 03:50:04;;;;;;;2.60;1.15;;;;;;;16.95;91.42;102057.66;4971035;28;20081;-68
2022/08/09 03:52:29;;;;;;;1.70;0.77;;;;;;;17.01;91.83;102053.47;4970798;28;20415;-68
2022/08/09 03:54:58;;;;;;;2.25;1.17;;;;;;;17.03;91.29;102056.63;4972191;28;20050;-68
2022/08/09 03:57:24;;;;;;;1.75;1.20;;;;;;;17.04;91.61;102052.72;4971854;28;20131;-68
2022/08/09 03:59:51;;;;;;;2.00;0.85;;;;;;;16.95;91.43;102054.91;4986930;28;20030;-68
2022/08/09 04:02:18;;;;;;;2.28;1.10;;;;;;;17.04;90.91;102053.53;4972479;28;20097;-68
2022/08/09 04:04:44;;;;;;;1.92;1.00;;;;;;;17.08;91.14;102059.81;4971835;28;20030;-68
2022/08/09 04:07:09;;;;;;;1.33;0.93;;;;;;;16.98;91.38;102062.34;4989910;28;20037;-70
2022/08/09 04:09:35;;;;;;;1.58;1.15;;;;;;;16.98;91.51;102057.69;5010340;28;20136;-70
2022/08/09 04:12:00;;;;;;;1.50;1.08;;;;;;;16.91;91.38;102060.31;5009636;28;20079;-69
2022/08/09 04:14:26;;;;;;;2.28;1.35;;;;;;;16.76;91.90;102063.13;4999332;28;20043;-69
2022/08/09 04:16:51;;;;;;;2.05;1.15;;;;;;;16.85;91.57;102071.84;4971882;28;20192;-69
2022/08/09 04:19:17;;;;;;;4.25;1.20;;;;;;;16.81;91.58;102073.72;4986260;28;20081;-69
2022/08/09 04:21:44;;;;;;;1.48;1.02;;;;;;;16.76;92.55;102079.47;4987258;28;20092;-69
2022/08/09 04:24:09;;;;;;;1.33;0.90;;;;;;;16.75;92.41;102069.72;4972590;28;20570;-68
2022/08/09 04:26:35;;;;;;;4.45;1.20;;;;;;;16.91;92.30;102076.63;4977383;28;20105;-68
2022/08/09 04:29:01;;;;;;;1.85;1.20;;;;;;;17.02;91.63;102074.88;4993354;28;20042;-68
2022/08/09 04:31:26;;;;;;;1.92;1.20;;;;;;;16.97;91.58;102068.94;4994500;28;20045;-69
2022/08/09 04:33:52;;;;;;;2.08;1.20;;;;;;;17.06;90.84;102070.28;4996190;28;20484;-69
2022/08/09 04:36:18;;;;;;;2.28;1.30;;;;;;;16.96;91.82;102070.09;4975587;28;20042;-69
2022/08/09 04:38:43;;;;;;;1.00;0.90;;;;;;;16.93;91.69;102066.19;4973771;28;20117;-69
2022/08/09 04:41:08;;;;;;;2.75;1.13;;;;;;;16.89;92.13;102069.97;4992720;23;20480;-65
2022/08/09 04:43:34;;;;;;;2.35;1.50;;;;;;;16.98;91.75;102084.13;4990447;28;20042;-65
2022/08/09 04:46:00;;;;;;;1.35;1.05;;;;;;;16.99;92.35;102067.41;5010078;28;20041;-65
2022/08/09 04:48:26;;;;;;;1.15;0.85;;;;;;;16.94;92.54;102072.38;4994538;28;20029;-66
2022/08/09 04:50:51;;;;;;;1.92;1.25;;;;;;;17.03;92.36;102073.72;4995069;28;20113;-66
2022/08/09 04:53:17;;;;;;;2.97;1.30;;;;;;;17.03;92.30;102071.00;4980445;28;20042;-65
2022/08/09 04:55:43;;;;;;;3.17;1.27;;;;;;;16.99;92.06;102072.09;4993732;28;20080;-65
2022/08/09 04:58:08;;;;;;;2.13;1.23;;;;;;;17.06;92.27;102075.72;4994186;28;20054;-65
2022/08/09 05:00:34;;;;;;;1.20;0.93;;;;;;;17.17;92.46;102080.56;4992395;28;20041;-65
2022/08/09 05:03:04;;;;;;;1.23;0.90;;;;;;;17.25;92.40;102076.81;4994347;28;20030;-65
2022/08/09 05:05:29;;;;;;;1.50;1.20;;;;;;;17.22;92.32;102085.69;4993178;28;20041;-65
2022/08/09 05:07:55;;;;;;;1.67;1.20;;;;;;;17.26;92.12;102076.44;4994157;28;20038;-65
2022/08/09 05:10:21;;;;;;;2.28;1.17;;;;;;;17.39;91.97;102083.25;4993739;28;20028;-65
2022/08/09 05:12:46;;;;;;;1.38;1.15;;;;;;;17.43;91.43;102086.03;4994652;28;20066;-66
2022/08/09 05:15:12;;;;;;;1.38;1.00;;;;;;;17.50;91.92;102097.84;4994471;28;20035;-65
2022/08/09 05:17:38;;;;;;;1.83;1.17;;;;;;;17.64;91.02;102098.06;4983118;28;20031;-65
2022/08/09 05:20:04;;;;;;;2.42;1.40;;;;;;;17.69;91.35;102099.72;4992994;28;20030;-68
2022/08/09 05:22:30;;;;;;;2.85;1.40;;;;;;;17.63;90.58;102110.16;4993928;28;20039;-65
2022/08/09 05:24:55;;;;;;;3.20;1.40;;;;;;;17.69;91.38;102099.72;4993981;28;20048;-65
2022/08/09 05:27:21;;;;;;;3.03;1.38;;;;;;;17.82;90.92;102107.31;4993768;28;20026;-65
2022/08/09 05:29:47;;;;;;;1.73;1.00;;;;;;;17.95;90.80;102111.38;4993991;28;20081;-65
2022/08/09 05:32:12;;;;;;;1.77;0.95;;;;;;;18.03;90.85;102112.25;4984119;28;20447;-65
2022/08/09 05:34:38;;;;;;;3.28;1.67;;;;;;;18.10;91.28;102115.06;4993726;28;20019;-65
2022/08/09 05:37:05;;;;;;;2.45;1.50;;;;;;;18.36;91.21;102120.47;4993134;28;20173;-65
2022/08/09 05:39:31;;;;;;;7.28;1.50;;;;;;;18.45;91.43;102120.22;4991552;28;20030;-64
2022/08/09 05:41:57;;;;;;;1.73;1.00;;;;;;;18.65;88.96;102116.16;4993373;28;20781;-65
2022/08/09 05:44:22;;;;;;;2.10;1.27;;;;;;;18.89;88.76;102124.59;4992819;28;20058;-65
2022/08/09 05:46:48;;;;;;;2.50;1.25;;;;;;;19.17;88.15;102124.09;5005584;28;20058;-65
2022/08/09 05:49:13;;;;;;;1.90;1.10;;;;;;;19.16;87.43;102128.00;4991375;28;20491;-65
2022/08/09 05:51:39;;;;;;;1.63;1.00;;;;;;;19.41;87.21;102129.03;4993139;28;20093;-65
2022/08/09 05:54:04;;;;;;;1.67;1.30;;;;;;;19.59;86.33;102143.59;4986493;28;20030;-65
2022/08/09 05:56:30;;;;;;;2.20;1.27;;;;;;;19.65;84.78;102136.63;4993259;28;20360;-65
2022/08/09 05:58:58;;;;;;;1.63;1.25;;;;;;;19.76;85.57;102134.75;4991757;28;20038;-65
2022/08/09 06:01:24;;;;;;;2.58;1.38;;;;;;;20.08;84.27;102143.16;4992681;28;20129;-65
2022/08/09 06:03:50;;;;;;;2.35;1.20;;;;;;;20.26;84.09;102148.75;4989100;28;20106;-65
2022/08/09 06:06:16;;;;;;;3.00;1.40;;;;;;;20.34;82.54;102148.38;4990132;28;20042;-65
2022/08/09 06:08:41;;;;;;;1.73;1.23;;;;;;;20.41;82.51;102153.13;4992106;28;20030;-66
2022/08/09 06:11:08;;;;;;;2.20;1.33;;;;;;;20.66;81.72;102156.72;4992738;28;20034;-65
2022/08/09 06:13:33;;;;;;;3.20;1.25;;;;;;;20.76;81.51;102155.97;4983981;28;20045;-65
2022/08/09 06:16:01;;;;;;;1.50;1.20;;;;;;;20.82;81.79;102156.38;4991270;28;20034;-65
2022/08/09 06:18:26;;;;;;;2.15;1.17;;;;;;;21.04;81.49;102160.78;4991590;28;20367;-66
2022/08/09 06:20:56;;;;;;;2.13;1.00;;;;;;;21.17;80.53;102160.03;4990579;28;20113;-65
2022/08/09 06:23:26;;;;;;;5.07;1.70;;;;;;;21.28;80.43;102158.06;4992402;28;20046;-66
2022/08/09 06:25:52;;;;;;;2.45;1.30;;;;;;;21.54;79.34;102174.13;5006663;28;20042;-66
2022/08/09 06:28:17;;;;;;;4.28;1.40;;;;;;;21.70;78.74;102173.72;4988096;28;20033;-65
2022/08/09 06:30:43;;;;;;;4.28;1.63;;;;;;;21.78;77.92;102166.25;4990787;28;20041;-65
2022/08/09 06:33:08;;;;;;;2.17;1.65;;;;;;;21.93;77.61;102167.84;4990209;28;20030;-65
2022/08/09 06:35:34;;;;;;;1.90;1.25;;;;;;;21.85;77.71;102171.78;4992245;28;20076;-65
2022/08/09 06:38:00;;;;;;;4.65;1.40;;;;;;;21.71;77.23;102167.06;4982880;28;20066;-65
2022/08/09 06:40:25;;;;;;;1.58;1.13;;;;;;;21.85;77.43;102172.59;4990350;28;20522;-65
2022/08/09 06:42:51;;;;;;;1.42;1.27;;;;;;;22.14;77.85;102176.03;4993817;28;20080;-65
2022/08/09 06:45:17;;;;;;;5.78;1.60;;;;;;;22.23;76.98;102170.91;4987408;28;20045;-63
2022/08/09 06:47:43;;;;;;;1.63;1.13;;;;;;;22.27;76.68;102174.44;4990836;28;20122;-65
2022/08/09 06:50:09;;;;;;;1.52;1.13;;;;;;;22.41;75.97;102169.66;4988572;28;20165;-65
2022/08/09 06:52:34;;;;;;;1.98;1.20;;;;;;;22.47;75.57;102177.50;4990906;28;20038;-65
2022/08/09 06:55:00;;;;;;;1.70;1.50;;;;;;;22.57;75.26;102179.47;4991694;28;20038;-65
2022/08/09 06:57:26;;;;;;;1.75;1.13;;;;;;;22.82;74.30;102188.38;4991412;28;20502;-65
2022/08/09 06:59:52;;;;;;;1.83;1.40;;;;;;;22.94;73.47;102185.94;4990754;28;20034;-65
2022/08/09 07:02:18;;;;;;;1.33;1.20;;;;;;;23.12;72.87;102186.59;4989355;28;20450;-66
2022/08/09 07:04:44;;;;;;;2.40;1.50;;;;;;;23.38;72.84;102179.00;4991738;28;20028;-65
2022/08/09 07:07:09;;;;;;;1.60;0.93;;;;;;;23.55;71.92;102184.34;4987739;28;20034;-64
2022/08/09 07:09:35;;;;;;;2.60;1.17;;;;;;;23.69;71.57;102191.72;4990840;28;20364;-63
2022/08/09 07:12:00;;;;;;;1.92;1.05;;;;;;;23.79;71.02;102185.34;4990571;28;20037;-63
2022/08/09 07:14:26;;;;;;;3.67;1.13;;;;;;;23.97;70.63;102186.72;4991256;28;20045;-63
2022/08/09 07:16:52;;;;;;;3.83;1.20;;;;;;;24.13;69.98;102192.47;4987030;28;20487;-64
2022/08/09 07:19:17;;;;;;;1.30;1.02;;;;;;;24.10;69.58;102196.03;4990761;28;20030;-63
2022/08/09 07:21:44;;;;;;;3.05;1.30;;;;;;;24.27;69.65;102201.78;4987656;28;20601;-63
2022/08/09 07:24:09;;;;;;;2.83;1.20;;;;;;;24.45;68.06;102197.63;4990169;28;20478;-63
2022/08/09 07:26:35;;;;;;;2.75;1.20;;;;;;;24.65;67.54;102197.75;4990604;28;20026;-64
2022/08/09 07:29:03;;;;;;;1.02;0.80;;;;;;;24.81;68.04;102198.00;4990761;28;20109;-63
2022/08/09 07:31:29;;;;;;;1.42;1.02;;;;;;;24.89;67.92;102202.22;4990561;28;20042;-64
2022/08/09 07:33:54;;;;;;;1.33;1.10;;;;;;;25.08;67.60;102204.31;4992055;28;20045;-63
2022/08/09 07:36:20;;;;;;;1.38;0.85;;;;;;;25.12;66.58;102207.00;4990676;28;20061;-63
2022/08/09 07:38:45;;;;;;;1.30;0.90;;;;;;;25.27;67.14;102198.09;4990070;28;20030;-63
2022/08/09 07:41:11;;;;;;;1.00;0.73;;;;;;;25.43;66.03;102203.00;4990985;28;20657;-63
2022/08/09 07:43:36;;;;;;;2.10;0.70;;;;;;;25.50;64.46;102198.16;4989981;28;20104;-64
2022/08/09 07:46:02;;;;;;;0.80;0.80;;;;;;;25.69;63.83;102194.66;4989333;28;20049;-64
2022/08/09 07:48:27;;;;;;;1.35;0.70;;;;;;;25.81;63.16;102196.03;4985107;28;20054;-64
2022/08/09 07:50:53;;;;;;;1.00;0.82;;;;;;;25.85;63.38;102194.00;4988517;28;20050;-64
2022/08/09 07:53:19;;;;;;;0.80;0.70;;;;;;;25.97;62.96;102198.91;4999167;28;20034;-63
2022/08/09 07:55:44;;;;;;;1.02;0.95;;;;;;;26.08;62.74;102205.03;4990265;28;20384;-64
2022/08/09 07:58:10;;;;;;;1.60;0.80;;;;;;;26.26;62.83;102216.56;4989453;28;20029;-64
2022/08/09 08:00:37;;;;;;;2.13;0.93;;;;;;;26.20;60.37;102209.16;4985992;28;20046;-64
2022/08/09 08:03:03;;;;;;;0.70;0.60;;;;;;;25.88;61.20;102207.75;4989877;28;20039;-64
2022/08/09 08:05:28;;;;;;;2.10;0.80;;;;;;;25.85;62.81;102214.13;4987343;28;20105;-64
2022/08/09 08:07:54;;;;;;;1.27;0.50;;;;;;;26.21;63.10;102211.50;4988248;28;20112;-64
2022/08/09 08:10:20;;;;;;;0.60;0.40;;;;;;;26.49;61.29;102213.72;4989785;28;20034;-64
2022/08/09 08:12:46;;;;;;;3.45;0.60;;;;;;;26.72;59.39;102216.41;5004575;28;20448;-63
2022/08/09 08:15:18;;;;;;;0.75;0.47;;;;;;;26.93;58.51;102206.09;4990045;28;20073;-63
2022/08/09 08:17:45;;;;;;;1.35;0.68;;;;;;;27.18;57.88;102217.38;4990490;28;20048;-64
2022/08/09 08:20:11;;;;;;;3.72;0.47;;;;;;;27.31;56.19;102209.97;4987512;28;20034;-64
2022/08/09 08:22:36;;;;;;;0.60;0.40;;;;;;;27.47;55.53;102209.97;4990405;28;20111;-64
2022/08/09 08:25:02;;;;;;;0.60;0.50;;;;;;;27.41;56.13;102215.25;4990020;28;20026;-64
2022/08/09 08:27:29;;;;;;;0.60;0.60;;;;;;;27.51;54.83;102211.47;4989753;28;20161;-63
2022/08/09 08:29:54;;;;;;;1.77;0.73;;;;;;;27.61;55.92;102212.41;4988734;28;20161;-64
2022/08/09 08:32:21;;;;;;;0.38;0.38;;;;;;;27.71;54.86;102214.13;5000102;28;20042;-64
2022/08/09 08:34:47;;;;;;;0.75;0.63;;;;;;;27.79;52.29;102211.94;4990477;28;20042;-64
2022/08/09 08:37:12;;;;;;;0.82;0.50;;;;;;;27.77;52.86;102214.38;4984094;28;20034;-64
2022/08/09 08:39:38;;;;;;;0.47;0.40;;;;;;;27.91;52.28;102214.00;4989518;28;20038;-64
2022/08/09 08:42:04;;;;;;;1.05;0.40;;;;;;;28.09;51.72;102215.13;4990218;28;20081;-64
2022/08/09 08:44:34;;;;;;;1.65;0.55;;;;;;;28.16;50.70;102222.47;4990037;28;20034;-64
2022/08/09 08:47:01;;;;;;;0.57;0.40;;;;;;;28.01;51.01;102216.53;4990349;28;20053;-64
2022/08/09 08:49:29;;;;;;;0.50;0.50;;;;;;;28.01;52.37;102222.06;4984595;28;20418;-64
2022/08/09 08:51:55;;;;;;;1.40;0.52;;;;;;;28.15;51.80;102216.16;4987927;28;20367;-64
2022/08/09 08:54:20;;;;;;;0.40;0.38;;;;;;;28.38;50.51;102224.22;4988472;28;20041;-64
2022/08/09 08:56:46;;;;;;;1.02;0.60;;;;;;;27.90;49.15;102226.31;4989403;28;20041;-64
2022/08/09 08:59:12;;;;;;;0.40;0.40;;;;;;;27.60;49.91;102219.16;4989025;28;20553;-64
2022/08/09 09:01:41;;;;;;;0.57;0.30;;;;;;;27.81;51.14;102223.38;4990104;28;20399;-64
2022/08/09 09:04:09;;;;;;;2.45;0.45;;;;;;;27.90;51.86;102227.09;4987599;28;20394;-64
2022/08/09 09:06:40;;;;;;;0.50;0.40;;;;;;;28.08;51.34;102224.66;4989346;28;20027;-64
2022/08/09 09:09:07;;;;;;;0.30;0.30;;;;;;;28.19;51.73;102216.81;4982431;28;20077;-64
2022/08/09 09:11:34;;;;;;;0.50;0.40;;;;;;;28.36;51.25;102226.66;4987587;28;20158;-64
2022/08/09 09:14:08;;;;;;;3.30;0.55;;;;;;;28.27;49.49;102222.94;4990600;28;20050;-64
2022/08/09 09:16:34;;;;;;;0.40;0.40;;;;;;;28.53;49.94;102222.56;4992979;28;20044;-64
2022/08/09 09:19:02;;;;;;;0.30;0.30;;;;;;;28.71;49.44;102218.53;4987051;28;20038;-65
2022/08/09 09:21:28;;;;;;;0.40;0.40;;;;;;;28.93;48.78;102225.78;4992087;28;20041;-64
2022/08/09 09:23:53;;;;;;;0.50;0.40;;;;;;;29.00;46.82;102222.78;4992922;28;20026;-64
2022/08/09 09:26:22;;;;;;;0.50;0.28;;;;;;;29.35;47.57;102223.69;4992838;28;20511;-65
2022/08/09 09:28:48;;;;;;;0.82;0.28;;;;;;;29.52;47.50;102222.34;4990902;28;20439;-64
2022/08/09 09:31:16;;;;;;;0.40;0.40;;;;;;;29.73;47.36;102235.56;4993054;28;20097;-64
2022/08/09 09:33:42;;;;;;;0.85;0.40;;;;;;;29.90;46.66;102228.63;5003094;28;20030;-64
2022/08/09 09:36:10;;;;;;;0.50;0.35;;;;;;;30.03;45.97;102229.34;4992409;28;20088;-65
2022/08/09 09:38:39;;;;;;;1.42;0.35;;;;;;;30.17;46.28;102223.28;4985992;28;20033;-65
2022/08/09 09:41:05;;;;;;;0.30;0.30;;;;;;;30.40;46.06;102215.75;4992742;28;20026;-64
2022/08/09 09:43:31;;;;;;;0.10;0.10;;;;;;;30.53;45.76;102222.00;4992353;28;20053;-64
2022/08/09 09:45:56;;;;;;;1.90;0.35;;;;;;;30.52;46.00;102226.03;4993065;28;20042;-64
2022/08/09 09:48:22;;;;;;;0.30;0.20;;;;;;;30.67;45.79;102215.91;4989379;28;20502;-65
2022/08/09 09:50:50;;;;;;;0.70;0.40;;;;;;;30.77;45.11;102226.66;4992612;28;20487;-64
2022/08/09 09:53:21;;;;;;;1.10;0.28;;;;;;;30.96;44.65;102230.31;4989875;28;20025;-64
2022/08/09 09:56:01;;;;;;;0.93;0.40;;;;;;;31.05;44.19;102233.13;4973780;28;20034;-64
2022/08/09 09:58:44;;;;;;;0.32;0.25;;;;;;;30.91;42.66;102242.06;4988828;28;20072;-64
2022/08/09 10:01:21;;;;;;;2.28;0.30;;;;;;;31.07;42.05;102231.44;4988926;28;20035;-64
2022/08/09 10:03:48;;;;;;;0.68;0.40;;;;;;;31.17;42.72;102232.25;4988475;28;20058;-64
2022/08/09 10:06:16;;;;;;;0.20;0.20;;;;;;;31.34;43.43;102225.19;4989641;28;20044;-64
2022/08/09 10:08:43;;;;;;;1.08;0.30;;;;;;;31.41;43.88;102224.94;4990606;28;20034;-65
2022/08/09 10:11:25;;;;;;;2.35;0.28;;;;;;;31.49;44.02;102225.44;4989208;28;20038;-64
2022/08/09 10:13:52;;;;;;;0.45;0.20;;;;;;;31.64;44.01;102232.72;4990303;28;20058;-64
2022/08/09 10:16:35;;;;;;;0.20;0.20;;;;;;;31.69;42.79;102223.75;4991897;28;20101;-65
2022/08/09 10:19:07;;;;;;;1.65;0.30;;;;;;;31.51;43.95;102228.53;4988130;28;20161;-65
2022/08/09 10:21:48;;;;;;;1.08;0.50;;;;;;;31.27;43.55;102219.91;4989599;28;20486;-65
2022/08/09 10:24:14;;;;;;;0.85;0.30;;;;;;;30.55;42.11;102216.75;4991190;28;20041;-65
2022/08/09 10:26:41;;;;;;;0.65;0.50;;;;;;;30.05;45.79;102220.56;4990480;28;20527;-65
2022/08/09 10:29:10;;;;;;;0.90;0.40;;;;;;;29.31;45.61;102214.72;4990650;28;20046;-66
2022/08/09 10:31:38;;;;;;;0.95;0.30;;;;;;;28.64;49.04;102215.97;4989333;28;20443;-65
2022/08/09 10:34:05;;;;;;;0.57;0.50;;;;;;;28.82;48.13;102211.47;4990438;28;20483;-65
2022/08/09 10:36:31;;;;;;;0.60;0.30;;;;;;;29.10;47.92;102207.03;4987925;28;20038;-65
2022/08/09 10:38:57;;;;;;;0.47;0.20;;;;;;;29.51;46.35;102212.47;4987482;28;20045;-66
2022/08/09 10:43:57;;;;;;;0.30;0.30;;;;;;;30.39;44.48;102209.41;5059615;28;20075;-65
2022/08/09 10:46:32;;;;;;;0.30;0.30;;;;;;;30.78;44.86;102207.91;5069180;28;20444;-65
2022/08/09 10:49:00;;;;;;;0.32;0.32;;;;;;;31.14;44.39;102205.34;5066610;28;20075;-66
2022/08/09 10:51:46;;;;;;;0.65;0.40;;;;;;;31.32;42.64;102216.50;5062533;28;20402;-65
2022/08/09 10:54:13;;;;;;;0.63;0.30;;;;;;;31.64;43.20;102213.22;5048700;28;20025;-65
2022/08/09 10:56:42;;;;;;;2.80;0.25;;;;;;;31.72;42.53;102199.75;5049673;28;20035;-65
2022/08/09 10:59:27;;;;;;;0.30;0.30;;;;;;;31.66;42.06;102202.38;5041641;28;20033;-65
2022/08/09 11:01:52;;;;;;;0.70;0.40;;;;;;;30.46;41.01;102200.03;5050129;28;20040;-65
2022/08/09 11:04:20;;;;;;;0.50;0.35;;;;;;;30.65;42.78;102198.88;5046139;28;20539;-65
2022/08/09 11:06:59;;;;;;;0.60;0.30;;;;;;;30.91;42.16;102203.09;5042392;28;20040;-65
2022/08/09 11:09:37;;;;;;;0.40;0.40;;;;;;;30.89;42.20;102200.75;5043183;28;20957;-65
2022/08/09 11:12:26;;;;;;;0.30;0.30;;;;;;;30.98;42.56;102208.34;5038858;28;20041;-66
2022/08/09 11:14:54;;;;;;;0.22;0.20;;;;;;;31.07;42.59;102206.38;5049218;28;20128;-66
2022/08/09 11:17:19;;;;;;;1.52;0.95;;;;;;;31.16;42.38;102194.50;5042882;28;20083;-65
2022/08/09 11:20:06;;;;;;;0.20;0.20;;;;;;;31.43;42.83;102197.41;5045848;28;20033;-66
2022/08/09 11:22:43;;;;;;;1.00;0.30;;;;;;;31.57;42.33;102199.56;5047620;28;20123;-66
2022/08/09 11:25:16;;;;;;;0.90;0.40;;;;;;;31.37;42.54;102199.25;5048326;28;20474;-66
2022/08/09 11:27:44;;;;;;;0.98;0.22;;;;;;;31.28;43.11;102195.63;5047767;28;20045;-66
2022/08/09 11:30:11;;;;;;;0.32;0.32;;;;;;;31.09;43.58;102194.78;5043799;28;20032;-66
2022/08/09 11:32:40;;;;;;;0.20;0.20;;;;;;;31.09;43.13;102187.22;5040189;28;20478;-67